sensor_id;sensor_type;location;lat;lon;timestamp;P1;durP1;ratioP1;P2;durP2;ratioP2
46719;SDS011;32452;51.382;-0.002;2022-08-19T00:00:47;6.82;;;2.13;;
46719;SDS011;32452;51.382;-0.002;2022-08-19T00:03:34;6.68;;;2.35;;
46719;SDS011;32452;51.382;-0.002;2022-08-19T00:06:19;6.35;;;2.28;;
46719;SDS011;32452;51.382;-0.002;2022-08-19T00:09:06;7.22;;;2.55;;
46719;SDS011;32452;51.382;-0.002;2022-08-19T00:11:54;8.55;;;2.75;;
46719;SDS011;32452;51.382;-0.002;2022-08-19T00:14:41;6.63;;;2.90;;
46719;SDS011;32452;51.382;-0.002;2022-08-19T00:17:27;7.88;;;2.63;;
46719;SDS011;32452;51.382;-0.002;2022-08-19T00:20:13;5.78;;;2.50;;
46719;SDS011;32452;51.382;-0.002;2022-08-19T00:23:02;5.32;;;2.55;;
46719;SDS011;32452;51.382;-0.002;2022-08-19T00:25:48;8.95;;;2.70;;
46719;SDS011;32452;51.382;-0.002;2022-08-19T00:28:33;6.40;;;2.80;;
46719;SDS011;32452;51.382;-0.002;2022-08-19T00:31:20;5.70;;;2.78;;
46719;SDS011;32452;51.382;-0.002;2022-08-19T00:34:07;5.40;;;2.22;;
46719;SDS011;32452;51.382;-0.002;2022-08-19T00:36:53;6.53;;;2.78;;
46719;SDS011;32452;51.382;-0.002;2022-08-19T00:39:39;7.15;;;2.55;;
46719;SDS011;32452;51.382;-0.002;2022-08-19T00:42:24;5.40;;;2.33;;
46719;SDS011;32452;51.382;-0.002;2022-08-19T00:45:21;7.18;;;2.38;;
46719;SDS011;32452;51.382;-0.002;2022-08-19T00:48:08;4.53;;;2.10;;
46719;SDS011;32452;51.382;-0.002;2022-08-19T00:50:59;3.13;;;2.17;;
46719;SDS011;32452;51.382;-0.002;2022-08-19T00:53:44;7.55;;;2.60;;
46719;SDS011;32452;51.382;-0.002;2022-08-19T00:56:30;7.28;;;2.50;;
46719;SDS011;32452;51.382;-0.002;2022-08-19T00:59:16;5.22;;;2.22;;
46719;SDS011;32452;51.382;-0.002;2022-08-19T01:02:23;5.22;;;2.55;;
46719;SDS011;32452;51.382;-0.002;2022-08-19T01:05:11;7.15;;;3.22;;
46719;SDS011;32452;51.382;-0.002;2022-08-19T01:08:00;5.88;;;2.70;;
46719;SDS011;32452;51.382;-0.002;2022-08-19T01:10:49;9.18;;;2.53;;
46719;SDS011;32452;51.382;-0.002;2022-08-19T01:13:38;10.30;;;3.03;;
46719;SDS011;32452;51.382;-0.002;2022-08-19T01:16:34;7.63;;;2.67;;
46719;SDS011;32452;51.382;-0.002;2022-08-19T01:22:48;8.02;;;3.33;;
46719;SDS011;32452;51.382;-0.002;2022-08-19T01:28:29;6.65;;;3.13;;
46719;SDS011;32452;51.382;-0.002;2022-08-19T01:31:24;6.35;;;3.22;;
46719;SDS011;32452;51.382;-0.002;2022-08-19T01:34:12;6.97;;;3.38;;
46719;SDS011;32452;51.382;-0.002;2022-08-19T01:36:57;11.18;;;3.58;;
46719;SDS011;32452;51.382;-0.002;2022-08-19T01:39:42;11.07;;;4.10;;
46719;SDS011;32452;51.382;-0.002;2022-08-19T01:42:28;7.15;;;3.25;;
46719;SDS011;32452;51.382;-0.002;2022-08-19T01:45:14;8.15;;;4.20;;
46719;SDS011;32452;51.382;-0.002;2022-08-19T01:48:01;8.48;;;4.22;;
46719;SDS011;32452;51.382;-0.002;2022-08-19T01:50:47;9.70;;;4.75;;
46719;SDS011;32452;51.382;-0.002;2022-08-19T01:53:32;10.25;;;4.88;;
46719;SDS011;32452;51.382;-0.002;2022-08-19T01:56:18;16.88;;;6.15;;
46719;SDS011;32452;51.382;-0.002;2022-08-19T01:59:05;9.63;;;5.07;;
46719;SDS011;32452;51.382;-0.002;2022-08-19T02:01:59;10.82;;;5.28;;
46719;SDS011;32452;51.382;-0.002;2022-08-19T02:04:45;10.20;;;4.82;;
46719;SDS011;32452;51.382;-0.002;2022-08-19T02:07:30;13.20;;;5.85;;
46719;SDS011;32452;51.382;-0.002;2022-08-19T02:10:18;9.98;;;4.88;;
46719;SDS011;32452;51.382;-0.002;2022-08-19T02:13:06;9.85;;;4.25;;
46719;SDS011;32452;51.382;-0.002;2022-08-19T02:15:51;10.85;;;5.25;;
46719;SDS011;32452;51.382;-0.002;2022-08-19T02:18:37;12.60;;;5.22;;
46719;SDS011;32452;51.382;-0.002;2022-08-19T02:21:23;12.50;;;4.93;;
46719;SDS011;32452;51.382;-0.002;2022-08-19T02:24:09;12.55;;;5.63;;
46719;SDS011;32452;51.382;-0.002;2022-08-19T02:26:54;10.95;;;5.03;;
46719;SDS011;32452;51.382;-0.002;2022-08-19T02:29:40;11.48;;;4.68;;
46719;SDS011;32452;51.382;-0.002;2022-08-19T02:32:26;11.77;;;5.28;;
46719;SDS011;32452;51.382;-0.002;2022-08-19T02:35:12;9.07;;;4.22;;
46719;SDS011;32452;51.382;-0.002;2022-08-19T02:37:59;11.80;;;4.45;;
46719;SDS011;32452;51.382;-0.002;2022-08-19T02:41:04;12.52;;;5.35;;
46719;SDS011;32452;51.382;-0.002;2022-08-19T02:44:00;8.38;;;4.30;;
46719;SDS011;32452;51.382;-0.002;2022-08-19T02:47:06;7.43;;;3.75;;
46719;SDS011;32452;51.382;-0.002;2022-08-19T02:49:51;8.52;;;3.97;;
46719;SDS011;32452;51.382;-0.002;2022-08-19T02:52:37;10.55;;;5.13;;
46719;SDS011;32452;51.382;-0.002;2022-08-19T02:55:23;8.80;;;4.20;;
46719;SDS011;32452;51.382;-0.002;2022-08-19T02:58:08;7.85;;;4.38;;
46719;SDS011;32452;51.382;-0.002;2022-08-19T03:00:55;10.10;;;3.95;;
46719;SDS011;32452;51.382;-0.002;2022-08-19T03:03:41;11.00;;;4.40;;
46719;SDS011;32452;51.382;-0.002;2022-08-19T03:06:27;9.23;;;4.13;;
46719;SDS011;32452;51.382;-0.002;2022-08-19T03:09:12;9.13;;;4.78;;
46719;SDS011;32452;51.382;-0.002;2022-08-19T03:11:58;8.27;;;4.50;;
46719;SDS011;32452;51.382;-0.002;2022-08-19T03:14:44;9.00;;;5.07;;
46719;SDS011;32452;51.382;-0.002;2022-08-19T03:17:31;9.52;;;4.80;;
46719;SDS011;32452;51.382;-0.002;2022-08-19T03:20:17;9.50;;;4.50;;
46719;SDS011;32452;51.382;-0.002;2022-08-19T03:23:02;14.50;;;4.50;;
46719;SDS011;32452;51.382;-0.002;2022-08-19T03:25:48;12.43;;;4.97;;
46719;SDS011;32452;51.382;-0.002;2022-08-19T03:28:47;9.35;;;4.85;;
46719;SDS011;32452;51.382;-0.002;2022-08-19T03:31:42;8.93;;;5.00;;
46719;SDS011;32452;51.382;-0.002;2022-08-19T03:34:37;12.77;;;5.95;;
46719;SDS011;32452;51.382;-0.002;2022-08-19T03:37:23;12.00;;;5.45;;
46719;SDS011;32452;51.382;-0.002;2022-08-19T03:40:09;9.55;;;5.70;;
46719;SDS011;32452;51.382;-0.002;2022-08-19T03:43:00;14.10;;;5.20;;
46719;SDS011;32452;51.382;-0.002;2022-08-19T03:45:47;9.65;;;5.60;;
46719;SDS011;32452;51.382;-0.002;2022-08-19T03:48:33;11.02;;;6.07;;
46719;SDS011;32452;51.382;-0.002;2022-08-19T03:51:22;11.32;;;6.45;;
46719;SDS011;32452;51.382;-0.002;2022-08-19T03:54:15;15.02;;;6.60;;
46719;SDS011;32452;51.382;-0.002;2022-08-19T03:57:05;14.35;;;7.07;;
46719;SDS011;32452;51.382;-0.002;2022-08-19T03:59:51;10.57;;;5.85;;
46719;SDS011;32452;51.382;-0.002;2022-08-19T04:02:37;12.18;;;5.93;;
46719;SDS011;32452;51.382;-0.002;2022-08-19T04:05:22;13.07;;;6.10;;
46719;SDS011;32452;51.382;-0.002;2022-08-19T04:08:12;11.15;;;5.78;;
46719;SDS011;32452;51.382;-0.002;2022-08-19T04:11:06;13.10;;;6.18;;
46719;SDS011;32452;51.382;-0.002;2022-08-19T04:13:53;11.32;;;6.63;;
46719;SDS011;32452;51.382;-0.002;2022-08-19T04:16:39;13.65;;;5.88;;
46719;SDS011;32452;51.382;-0.002;2022-08-19T04:19:25;14.07;;;5.88;;
46719;SDS011;32452;51.382;-0.002;2022-08-19T04:22:11;13.07;;;6.35;;
46719;SDS011;32452;51.382;-0.002;2022-08-19T04:24:57;12.93;;;6.15;;
46719;SDS011;32452;51.382;-0.002;2022-08-19T04:27:43;12.95;;;7.30;;
46719;SDS011;32452;51.382;-0.002;2022-08-19T04:30:36;12.85;;;6.18;;
46719;SDS011;32452;51.382;-0.002;2022-08-19T04:33:27;13.55;;;5.65;;
46719;SDS011;32452;51.382;-0.002;2022-08-19T04:36:23;8.55;;;5.57;;
46719;SDS011;32452;51.382;-0.002;2022-08-19T04:39:14;11.32;;;6.05;;
46719;SDS011;32452;51.382;-0.002;2022-08-19T04:42:02;14.20;;;6.28;;
46719;SDS011;32452;51.382;-0.002;2022-08-19T04:45:14;10.13;;;5.60;;
46719;SDS011;32452;51.382;-0.002;2022-08-19T04:48:01;10.73;;;5.45;;
46719;SDS011;32452;51.382;-0.002;2022-08-19T04:51:08;8.43;;;5.55;;
46719;SDS011;32452;51.382;-0.002;2022-08-19T04:53:57;10.57;;;6.10;;
46719;SDS011;32452;51.382;-0.002;2022-08-19T04:56:44;10.10;;;6.00;;
46719;SDS011;32452;51.382;-0.002;2022-08-19T04:59:31;11.85;;;5.63;;
46719;SDS011;32452;51.382;-0.002;2022-08-19T05:02:18;10.13;;;5.28;;
46719;SDS011;32452;51.382;-0.002;2022-08-19T05:05:04;9.45;;;5.03;;
46719;SDS011;32452;51.382;-0.002;2022-08-19T05:07:51;10.48;;;5.07;;
46719;SDS011;32452;51.382;-0.002;2022-08-19T05:10:37;7.70;;;4.40;;
46719;SDS011;32452;51.382;-0.002;2022-08-19T05:13:24;7.60;;;4.18;;
46719;SDS011;32452;51.382;-0.002;2022-08-19T05:16:10;5.25;;;3.95;;
46719;SDS011;32452;51.382;-0.002;2022-08-19T05:18:57;6.70;;;3.65;;
46719;SDS011;32452;51.382;-0.002;2022-08-19T05:22:01;7.10;;;3.70;;
46719;SDS011;32452;51.382;-0.002;2022-08-19T05:25:06;11.55;;;3.83;;
46719;SDS011;32452;51.382;-0.002;2022-08-19T05:27:57;8.88;;;3.40;;
46719;SDS011;32452;51.382;-0.002;2022-08-19T05:30:43;5.55;;;3.75;;
46719;SDS011;32452;51.382;-0.002;2022-08-19T05:33:31;7.57;;;3.38;;
46719;SDS011;32452;51.382;-0.002;2022-08-19T05:36:17;6.22;;;2.80;;
46719;SDS011;32452;51.382;-0.002;2022-08-19T05:39:05;7.88;;;2.65;;
46719;SDS011;32452;51.382;-0.002;2022-08-19T05:41:55;3.47;;;2.17;;
46719;SDS011;32452;51.382;-0.002;2022-08-19T05:44:52;4.30;;;2.03;;
46719;SDS011;32452;51.382;-0.002;2022-08-19T05:47:38;4.25;;;1.90;;
46719;SDS011;32452;51.382;-0.002;2022-08-19T05:50:26;3.05;;;1.60;;
46719;SDS011;32452;51.382;-0.002;2022-08-19T05:53:12;5.32;;;1.63;;
46719;SDS011;32452;51.382;-0.002;2022-08-19T05:56:05;3.58;;;1.40;;
46719;SDS011;32452;51.382;-0.002;2022-08-19T06:01:40;2.90;;;1.45;;
46719;SDS011;32452;51.382;-0.002;2022-08-19T06:04:27;2.60;;;1.10;;
46719;SDS011;32452;51.382;-0.002;2022-08-19T06:07:13;2.22;;;0.98;;
46719;SDS011;32452;51.382;-0.002;2022-08-19T06:09:59;2.13;;;0.80;;
46719;SDS011;32452;51.382;-0.002;2022-08-19T06:12:45;2.28;;;0.60;;
46719;SDS011;32452;51.382;-0.002;2022-08-19T06:15:30;1.83;;;0.65;;
46719;SDS011;32452;51.382;-0.002;2022-08-19T06:18:16;1.98;;;0.82;;
46719;SDS011;32452;51.382;-0.002;2022-08-19T06:21:01;1.35;;;0.73;;
46719;SDS011;32452;51.382;-0.002;2022-08-19T06:23:49;2.47;;;0.60;;
46719;SDS011;32452;51.382;-0.002;2022-08-19T06:26:37;2.42;;;0.70;;
46719;SDS011;32452;51.382;-0.002;2022-08-19T06:29:26;3.25;;;0.60;;
46719;SDS011;32452;51.382;-0.002;2022-08-19T06:32:14;2.13;;;0.75;;
46719;SDS011;32452;51.382;-0.002;2022-08-19T06:35:01;2.08;;;0.52;;
46719;SDS011;32452;51.382;-0.002;2022-08-19T06:37:46;1.42;;;0.50;;
46719;SDS011;32452;51.382;-0.002;2022-08-19T06:40:32;0.77;;;0.50;;
46719;SDS011;32452;51.382;-0.002;2022-08-19T06:43:17;1.98;;;0.60;;
46719;SDS011;32452;51.382;-0.002;2022-08-19T06:46:03;1.85;;;0.50;;
46719;SDS011;32452;51.382;-0.002;2022-08-19T06:48:51;2.75;;;0.60;;
46719;SDS011;32452;51.382;-0.002;2022-08-19T06:51:38;1.88;;;0.52;;
46719;SDS011;32452;51.382;-0.002;2022-08-19T06:54:28;3.10;;;0.70;;
46719;SDS011;32452;51.382;-0.002;2022-08-19T06:57:22;2.38;;;1.73;;
46719;SDS011;32452;51.382;-0.002;2022-08-19T07:00:11;4.85;;;1.48;;
46719;SDS011;32452;51.382;-0.002;2022-08-19T07:02:58;1.83;;;0.70;;
46719;SDS011;32452;51.382;-0.002;2022-08-19T07:05:49;1.17;;;0.60;;
46719;SDS011;32452;51.382;-0.002;2022-08-19T07:08:35;2.35;;;0.43;;
46719;SDS011;32452;51.382;-0.002;2022-08-19T07:11:27;4.00;;;0.95;;
46719;SDS011;32452;51.382;-0.002;2022-08-19T07:14:13;1.98;;;0.75;;
46719;SDS011;32452;51.382;-0.002;2022-08-19T07:17:05;2.55;;;0.68;;
46719;SDS011;32452;51.382;-0.002;2022-08-19T07:19:52;2.20;;;0.68;;
46719;SDS011;32452;51.382;-0.002;2022-08-19T07:22:38;3.90;;;0.55;;
46719;SDS011;32452;51.382;-0.002;2022-08-19T07:25:24;1.50;;;0.70;;
46719;SDS011;32452;51.382;-0.002;2022-08-19T07:28:17;2.35;;;0.70;;
46719;SDS011;32452;51.382;-0.002;2022-08-19T07:31:12;1.25;;;0.55;;
46719;SDS011;32452;51.382;-0.002;2022-08-19T07:34:05;2.10;;;0.50;;
46719;SDS011;32452;51.382;-0.002;2022-08-19T07:36:52;2.20;;;0.65;;
46719;SDS011;32452;51.382;-0.002;2022-08-19T07:39:39;0.93;;;0.73;;
46719;SDS011;32452;51.382;-0.002;2022-08-19T07:42:25;3.70;;;0.75;;
46719;SDS011;32452;51.382;-0.002;2022-08-19T07:45:11;1.95;;;0.60;;
46719;SDS011;32452;51.382;-0.002;2022-08-19T07:47:57;2.30;;;0.60;;
46719;SDS011;32452;51.382;-0.002;2022-08-19T07:50:43;2.75;;;0.63;;
46719;SDS011;32452;51.382;-0.002;2022-08-19T07:53:29;1.50;;;0.68;;
46719;SDS011;32452;51.382;-0.002;2022-08-19T07:56:20;1.90;;;0.47;;
46719;SDS011;32452;51.382;-0.002;2022-08-19T07:59:05;2.50;;;0.50;;
46719;SDS011;32452;51.382;-0.002;2022-08-19T08:01:53;2.78;;;0.60;;
46719;SDS011;32452;51.382;-0.002;2022-08-19T08:04:40;3.33;;;0.65;;
46719;SDS011;32452;51.382;-0.002;2022-08-19T08:07:44;4.00;;;0.90;;
46719;SDS011;32452;51.382;-0.002;2022-08-19T08:10:48;1.55;;;0.68;;
46719;SDS011;32452;51.382;-0.002;2022-08-19T08:13:40;5.65;;;0.90;;
46719;SDS011;32452;51.382;-0.002;2022-08-19T08:16:26;1.10;;;0.82;;
46719;SDS011;32452;51.382;-0.002;2022-08-19T08:19:16;0.60;;;0.40;;
46719;SDS011;32452;51.382;-0.002;2022-08-19T08:22:10;3.08;;;0.77;;
46719;SDS011;32452;51.382;-0.002;2022-08-19T08:25:20;2.22;;;0.98;;
46719;SDS011;32452;51.382;-0.002;2022-08-19T08:28:07;2.70;;;0.47;;
46719;SDS011;32452;51.382;-0.002;2022-08-19T08:30:56;2.60;;;0.70;;
46719;SDS011;32452;51.382;-0.002;2022-08-19T08:33:42;1.95;;;0.63;;
46719;SDS011;32452;51.382;-0.002;2022-08-19T08:36:28;4.55;;;0.70;;
46719;SDS011;32452;51.382;-0.002;2022-08-19T08:39:19;3.13;;;1.17;;
46719;SDS011;32452;51.382;-0.002;2022-08-19T08:42:07;1.75;;;0.55;;
46719;SDS011;32452;51.382;-0.002;2022-08-19T08:45:11;3.70;;;0.90;;
46719;SDS011;32452;51.382;-0.002;2022-08-19T08:48:01;3.30;;;0.73;;
46719;SDS011;32452;51.382;-0.002;2022-08-19T08:51:09;3.60;;;0.80;;
46719;SDS011;32452;51.382;-0.002;2022-08-19T08:54:04;2.22;;;0.55;;
46719;SDS011;32452;51.382;-0.002;2022-08-19T08:56:53;5.20;;;0.82;;
46719;SDS011;32452;51.382;-0.002;2022-08-19T08:59:40;4.57;;;0.80;;
46719;SDS011;32452;51.382;-0.002;2022-08-19T09:02:28;3.70;;;0.90;;
46719;SDS011;32452;51.382;-0.002;2022-08-19T09:05:14;3.45;;;0.65;;
46719;SDS011;32452;51.382;-0.002;2022-08-19T09:08:02;4.38;;;0.88;;
46719;SDS011;32452;51.382;-0.002;2022-08-19T09:10:57;2.92;;;0.60;;
46719;SDS011;32452;51.382;-0.002;2022-08-19T09:16:32;2.50;;;0.77;;
46719;SDS011;32452;51.382;-0.002;2022-08-19T09:19:19;3.72;;;0.75;;
46719;SDS011;32452;51.382;-0.002;2022-08-19T09:22:06;3.85;;;0.77;;
46719;SDS011;32452;51.382;-0.002;2022-08-19T09:24:54;3.15;;;0.88;;
46719;SDS011;32452;51.382;-0.002;2022-08-19T09:27:41;1.52;;;0.73;;
46719;SDS011;32452;51.382;-0.002;2022-08-19T09:30:28;6.15;;;0.68;;
46719;SDS011;32452;51.382;-0.002;2022-08-19T09:33:16;3.28;;;0.90;;
46719;SDS011;32452;51.382;-0.002;2022-08-19T09:36:04;6.50;;;0.90;;
46719;SDS011;32452;51.382;-0.002;2022-08-19T09:38:52;2.28;;;1.13;;
46719;SDS011;32452;51.382;-0.002;2022-08-19T09:41:38;3.60;;;0.93;;
46719;SDS011;32452;51.382;-0.002;2022-08-19T09:44:31;2.35;;;0.75;;
46719;SDS011;32452;51.382;-0.002;2022-08-19T09:47:18;5.25;;;0.77;;
46719;SDS011;32452;51.382;-0.002;2022-08-19T09:50:07;3.53;;;0.90;;
46719;SDS011;32452;51.382;-0.002;2022-08-19T09:53:00;1.23;;;0.52;;
46719;SDS011;32452;51.382;-0.002;2022-08-19T09:55:46;5.05;;;0.85;;
46719;SDS011;32452;51.382;-0.002;2022-08-19T09:58:32;3.30;;;0.88;;
46719;SDS011;32452;51.382;-0.002;2022-08-19T10:01:22;4.07;;;1.15;;
46719;SDS011;32452;51.382;-0.002;2022-08-19T10:04:11;2.67;;;0.70;;
46719;SDS011;32452;51.382;-0.002;2022-08-19T10:07:04;3.72;;;0.93;;
46719;SDS011;32452;51.382;-0.002;2022-08-19T10:09:50;4.32;;;1.25;;
46719;SDS011;32452;51.382;-0.002;2022-08-19T10:12:35;2.85;;;0.82;;
46719;SDS011;32452;51.382;-0.002;2022-08-19T10:15:22;4.75;;;0.75;;
46719;SDS011;32452;51.382;-0.002;2022-08-19T10:18:13;4.78;;;0.95;;
46719;SDS011;32452;51.382;-0.002;2022-08-19T10:23:56;1.85;;;1.05;;
46719;SDS011;32452;51.382;-0.002;2022-08-19T10:26:45;3.97;;;0.77;;
46719;SDS011;32452;51.382;-0.002;2022-08-19T10:29:40;6.45;;;1.10;;
46719;SDS011;32452;51.382;-0.002;2022-08-19T10:32:30;7.68;;;1.85;;
46719;SDS011;32452;51.382;-0.002;2022-08-19T10:35:18;7.00;;;1.27;;
46719;SDS011;32452;51.382;-0.002;2022-08-19T10:38:06;2.88;;;1.20;;
46719;SDS011;32452;51.382;-0.002;2022-08-19T10:40:54;6.70;;;1.50;;
46719;SDS011;32452;51.382;-0.002;2022-08-19T10:43:41;4.88;;;0.90;;
46719;SDS011;32452;51.382;-0.002;2022-08-19T10:46:27;4.18;;;1.20;;
46719;SDS011;32452;51.382;-0.002;2022-08-19T10:49:16;6.55;;;1.30;;
46719;SDS011;32452;51.382;-0.002;2022-08-19T10:52:03;4.95;;;1.20;;
46719;SDS011;32452;51.382;-0.002;2022-08-19T10:55:18;9.90;;;1.58;;
46719;SDS011;32452;51.382;-0.002;2022-08-19T10:58:24;8.50;;;2.00;;
46719;SDS011;32452;51.382;-0.002;2022-08-19T11:01:10;8.05;;;1.40;;
46719;SDS011;32452;51.382;-0.002;2022-08-19T11:03:56;6.35;;;1.30;;
46719;SDS011;32452;51.382;-0.002;2022-08-19T11:06:42;8.75;;;1.30;;
46719;SDS011;32452;51.382;-0.002;2022-08-19T11:09:30;6.30;;;1.00;;
46719;SDS011;32452;51.382;-0.002;2022-08-19T11:12:18;3.97;;;1.10;;
46719;SDS011;32452;51.382;-0.002;2022-08-19T11:15:07;4.63;;;0.95;;
46719;SDS011;32452;51.382;-0.002;2022-08-19T11:17:55;7.65;;;1.30;;
46719;SDS011;32452;51.382;-0.002;2022-08-19T11:20:41;3.90;;;1.42;;
46719;SDS011;32452;51.382;-0.002;2022-08-19T11:23:26;3.30;;;1.10;;
46719;SDS011;32452;51.382;-0.002;2022-08-19T11:26:12;7.05;;;1.13;;
46719;SDS011;32452;51.382;-0.002;2022-08-19T11:28:59;6.68;;;1.83;;
46719;SDS011;32452;51.382;-0.002;2022-08-19T11:31:48;9.02;;;1.27;;
46719;SDS011;32452;51.382;-0.002;2022-08-19T11:34:34;7.30;;;1.42;;
46719;SDS011;32452;51.382;-0.002;2022-08-19T11:37:20;6.28;;;1.00;;
46719;SDS011;32452;51.382;-0.002;2022-08-19T11:40:06;6.75;;;1.15;;
46719;SDS011;32452;51.382;-0.002;2022-08-19T11:42:53;4.13;;;1.40;;
46719;SDS011;32452;51.382;-0.002;2022-08-19T11:45:41;8.00;;;1.38;;
46719;SDS011;32452;51.382;-0.002;2022-08-19T11:48:27;8.50;;;1.85;;
46719;SDS011;32452;51.382;-0.002;2022-08-19T11:51:13;6.75;;;1.90;;
46719;SDS011;32452;51.382;-0.002;2022-08-19T11:54:01;8.80;;;2.03;;
46719;SDS011;32452;51.382;-0.002;2022-08-19T11:56:49;8.30;;;1.98;;
46719;SDS011;32452;51.382;-0.002;2022-08-19T11:59:35;7.28;;;1.63;;
46719;SDS011;32452;51.382;-0.002;2022-08-19T12:02:20;10.18;;;2.05;;
46719;SDS011;32452;51.382;-0.002;2022-08-19T12:05:07;6.03;;;1.90;;
46719;SDS011;32452;51.382;-0.002;2022-08-19T12:07:56;10.75;;;2.00;;
46719;SDS011;32452;51.382;-0.002;2022-08-19T12:10:42;6.57;;;2.22;;
46719;SDS011;32452;51.382;-0.002;2022-08-19T12:13:30;11.27;;;2.30;;
46719;SDS011;32452;51.382;-0.002;2022-08-19T12:16:17;8.82;;;1.80;;
46719;SDS011;32452;51.382;-0.002;2022-08-19T12:19:04;13.88;;;3.17;;
46719;SDS011;32452;51.382;-0.002;2022-08-19T12:21:51;7.30;;;2.28;;
46719;SDS011;32452;51.382;-0.002;2022-08-19T12:24:40;10.15;;;3.72;;
46719;SDS011;32452;51.382;-0.002;2022-08-19T12:27:25;8.52;;;2.10;;
46719;SDS011;32452;51.382;-0.002;2022-08-19T12:30:25;4.80;;;1.70;;
46719;SDS011;32452;51.382;-0.002;2022-08-19T12:33:10;9.10;;;2.10;;
46719;SDS011;32452;51.382;-0.002;2022-08-19T12:35:59;9.18;;;2.58;;
46719;SDS011;32452;51.382;-0.002;2022-08-19T12:38:53;9.88;;;2.13;;
46719;SDS011;32452;51.382;-0.002;2022-08-19T12:41:39;10.70;;;2.30;;
46719;SDS011;32452;51.382;-0.002;2022-08-19T12:44:38;6.03;;;1.55;;
46719;SDS011;32452;51.382;-0.002;2022-08-19T12:47:26;6.68;;;2.25;;
46719;SDS011;32452;51.382;-0.002;2022-08-19T12:50:12;7.22;;;1.45;;
46719;SDS011;32452;51.382;-0.002;2022-08-19T12:52:57;8.05;;;2.17;;
46719;SDS011;32452;51.382;-0.002;2022-08-19T12:55:43;7.72;;;2.10;;
46719;SDS011;32452;51.382;-0.002;2022-08-19T12:58:29;6.15;;;1.70;;
46719;SDS011;32452;51.382;-0.002;2022-08-19T13:01:15;6.28;;;1.50;;
46719;SDS011;32452;51.382;-0.002;2022-08-19T13:04:06;7.97;;;1.55;;
46719;SDS011;32452;51.382;-0.002;2022-08-19T13:06:51;7.97;;;1.98;;
46719;SDS011;32452;51.382;-0.002;2022-08-19T13:09:37;8.32;;;1.40;;
46719;SDS011;32452;51.382;-0.002;2022-08-19T13:12:22;10.27;;;2.20;;
46719;SDS011;32452;51.382;-0.002;2022-08-19T13:15:11;9.10;;;1.70;;
46719;SDS011;32452;51.382;-0.002;2022-08-19T13:17:59;8.70;;;1.70;;
46719;SDS011;32452;51.382;-0.002;2022-08-19T13:20:45;10.27;;;2.10;;
46719;SDS011;32452;51.382;-0.002;2022-08-19T13:23:36;8.88;;;2.30;;
46719;SDS011;32452;51.382;-0.002;2022-08-19T13:26:22;11.48;;;2.28;;
46719;SDS011;32452;51.382;-0.002;2022-08-19T13:29:08;8.10;;;2.10;;
46719;SDS011;32452;51.382;-0.002;2022-08-19T13:32:13;4.82;;;1.42;;
46719;SDS011;32452;51.382;-0.002;2022-08-19T13:35:17;10.57;;;2.20;;
46719;SDS011;32452;51.382;-0.002;2022-08-19T13:38:03;8.10;;;1.90;;
46719;SDS011;32452;51.382;-0.002;2022-08-19T13:40:55;9.75;;;2.05;;
46719;SDS011;32452;51.382;-0.002;2022-08-19T13:43:56;9.75;;;2.17;;
46719;SDS011;32452;51.382;-0.002;2022-08-19T13:46:42;9.93;;;2.45;;
46719;SDS011;32452;51.382;-0.002;2022-08-19T13:49:29;8.73;;;1.65;;
46719;SDS011;32452;51.382;-0.002;2022-08-19T13:52:15;7.80;;;1.85;;
46719;SDS011;32452;51.382;-0.002;2022-08-19T13:55:01;8.43;;;2.28;;
46719;SDS011;32452;51.382;-0.002;2022-08-19T13:57:54;7.50;;;2.17;;
46719;SDS011;32452;51.382;-0.002;2022-08-19T14:00:42;9.45;;;2.15;;
46719;SDS011;32452;51.382;-0.002;2022-08-19T14:03:30;11.52;;;2.38;;
46719;SDS011;32452;51.382;-0.002;2022-08-19T14:06:16;10.88;;;2.15;;
46719;SDS011;32452;51.382;-0.002;2022-08-19T14:09:02;7.50;;;1.73;;
46719;SDS011;32452;51.382;-0.002;2022-08-19T14:11:47;9.48;;;1.90;;
46719;SDS011;32452;51.382;-0.002;2022-08-19T14:14:38;6.45;;;1.77;;
46719;SDS011;32452;51.382;-0.002;2022-08-19T14:17:23;8.07;;;1.90;;
46719;SDS011;32452;51.382;-0.002;2022-08-19T14:20:10;9.35;;;2.38;;
46719;SDS011;32452;51.382;-0.002;2022-08-19T14:23:02;11.07;;;2.40;;
46719;SDS011;32452;51.382;-0.002;2022-08-19T14:25:50;8.90;;;2.53;;
46719;SDS011;32452;51.382;-0.002;2022-08-19T14:28:35;5.03;;;1.50;;
46719;SDS011;32452;51.382;-0.002;2022-08-19T14:31:21;10.45;;;1.77;;
46719;SDS011;32452;51.382;-0.002;2022-08-19T14:34:14;7.97;;;1.63;;
46719;SDS011;32452;51.382;-0.002;2022-08-19T14:37:00;8.95;;;1.73;;
46719;SDS011;32452;51.382;-0.002;2022-08-19T14:39:46;6.68;;;1.88;;
46719;SDS011;32452;51.382;-0.002;2022-08-19T14:42:31;6.05;;;1.52;;
46719;SDS011;32452;51.382;-0.002;2022-08-19T14:45:18;7.20;;;1.90;;
46719;SDS011;32452;51.382;-0.002;2022-08-19T14:48:07;7.65;;;1.75;;
46719;SDS011;32452;51.382;-0.002;2022-08-19T14:51:04;7.43;;;1.88;;
46719;SDS011;32452;51.382;-0.002;2022-08-19T14:53:51;6.40;;;1.52;;
46719;SDS011;32452;51.382;-0.002;2022-08-19T14:56:37;9.95;;;2.00;;
46719;SDS011;32452;51.382;-0.002;2022-08-19T14:59:24;8.07;;;1.50;;
46719;SDS011;32452;51.382;-0.002;2022-08-19T15:02:10;6.70;;;1.63;;
46719;SDS011;32452;51.382;-0.002;2022-08-19T15:05:16;8.88;;;1.70;;
46719;SDS011;32452;51.382;-0.002;2022-08-19T15:08:02;11.18;;;2.92;;
46719;SDS011;32452;51.382;-0.002;2022-08-19T15:10:49;6.13;;;1.67;;
46719;SDS011;32452;51.382;-0.002;2022-08-19T15:13:34;7.50;;;1.80;;
46719;SDS011;32452;51.382;-0.002;2022-08-19T15:16:21;8.43;;;1.55;;
46719;SDS011;32452;51.382;-0.002;2022-08-19T15:19:08;9.48;;;2.47;;
46719;SDS011;32452;51.382;-0.002;2022-08-19T15:21:53;8.15;;;1.50;;
46719;SDS011;32452;51.382;-0.002;2022-08-19T15:24:39;5.43;;;1.60;;
46719;SDS011;32452;51.382;-0.002;2022-08-19T15:27:32;7.90;;;1.58;;
46719;SDS011;32452;51.382;-0.002;2022-08-19T15:30:20;4.35;;;1.25;;
46719;SDS011;32452;51.382;-0.002;2022-08-19T15:33:09;4.88;;;1.55;;
46719;SDS011;32452;51.382;-0.002;2022-08-19T15:35:58;8.50;;;2.20;;
46719;SDS011;32452;51.382;-0.002;2022-08-19T15:38:44;9.15;;;2.08;;
46719;SDS011;32452;51.382;-0.002;2022-08-19T15:41:31;9.65;;;2.00;;
46719;SDS011;32452;51.382;-0.002;2022-08-19T15:44:20;7.18;;;1.60;;
46719;SDS011;32452;51.382;-0.002;2022-08-19T15:47:06;6.22;;;1.70;;
46719;SDS011;32452;51.382;-0.002;2022-08-19T15:49:51;8.18;;;1.65;;
46719;SDS011;32452;51.382;-0.002;2022-08-19T15:52:47;9.05;;;1.48;;
46719;SDS011;32452;51.382;-0.002;2022-08-19T15:55:35;9.45;;;1.52;;
46719;SDS011;32452;51.382;-0.002;2022-08-19T15:58:26;7.63;;;1.80;;
46719;SDS011;32452;51.382;-0.002;2022-08-19T16:01:30;9.05;;;1.70;;
46719;SDS011;32452;51.382;-0.002;2022-08-19T16:04:24;7.82;;;1.42;;
46719;SDS011;32452;51.382;-0.002;2022-08-19T16:07:28;5.78;;;2.40;;
46719;SDS011;32452;51.382;-0.002;2022-08-19T16:10:14;9.48;;;1.73;;
46719;SDS011;32452;51.382;-0.002;2022-08-19T16:13:10;7.38;;;1.90;;
46719;SDS011;32452;51.382;-0.002;2022-08-19T16:15:56;10.10;;;1.80;;
46719;SDS011;32452;51.382;-0.002;2022-08-19T16:18:42;7.90;;;1.80;;
46719;SDS011;32452;51.382;-0.002;2022-08-19T16:21:28;6.85;;;1.30;;
46719;SDS011;32452;51.382;-0.002;2022-08-19T16:24:18;6.72;;;1.70;;
46719;SDS011;32452;51.382;-0.002;2022-08-19T16:27:06;6.53;;;1.33;;
46719;SDS011;32452;51.382;-0.002;2022-08-19T16:29:51;7.35;;;1.90;;
46719;SDS011;32452;51.382;-0.002;2022-08-19T16:32:41;6.20;;;1.83;;
46719;SDS011;32452;51.382;-0.002;2022-08-19T16:35:27;8.93;;;2.05;;
46719;SDS011;32452;51.382;-0.002;2022-08-19T16:38:13;8.32;;;1.70;;
46719;SDS011;32452;51.382;-0.002;2022-08-19T16:40:59;7.95;;;1.95;;
46719;SDS011;32452;51.382;-0.002;2022-08-19T16:43:45;13.35;;;1.85;;
46719;SDS011;32452;51.382;-0.002;2022-08-19T16:46:33;7.70;;;1.65;;
46719;SDS011;32452;51.382;-0.002;2022-08-19T16:49:18;11.10;;;2.28;;
46719;SDS011;32452;51.382;-0.002;2022-08-19T16:52:25;6.10;;;1.58;;